createdAt,value
2023-03-08T00:04:23.274Z,13.40
2023-03-08T00:09:28.185Z,13.50
2023-03-08T00:14:31.637Z,13.40
2023-03-08T00:19:34.961Z,13.40
2023-03-08T00:24:39.902Z,13.40
2023-03-08T00:29:43.339Z,13.30
2023-03-08T00:34:47.436Z,13.30
2023-03-08T00:39:53.871Z,13.30
2023-03-08T00:44:57.253Z,13.30
2023-03-08T00:50:00.595Z,13.30
2023-03-08T00:55:05.662Z,13.30
2023-03-08T01:00:12.817Z,13.40
2023-03-08T01:05:16.928Z,13.50
2023-03-08T01:10:22.105Z,13.50
2023-03-08T01:15:25.465Z,13.50
2023-03-08T01:20:28.795Z,13.50
2023-03-08T01:25:33.672Z,13.50
2023-03-08T01:30:37.178Z,13.60
2023-03-08T01:35:40.623Z,13.60
2023-03-08T01:40:45.487Z,13.70
2023-03-08T01:46:08.835Z,13.60
2023-03-08T01:51:16.302Z,13.50
2023-03-08T01:56:22.129Z,13.50
2023-03-08T02:01:26.014Z,13.50
2023-03-08T02:06:32.820Z,13.50
2023-03-08T02:11:40.189Z,13.40
2023-03-08T02:16:43.712Z,13.50
2023-03-08T02:21:47.054Z,13.50
2023-03-08T02:26:54.062Z,13.50
2023-03-08T02:31:57.410Z,13.50
2023-03-08T02:37:00.763Z,13.50
2023-03-08T02:42:05.909Z,13.50
2023-03-08T02:47:09.933Z,13.50
2023-03-08T02:52:13.530Z,13.50
2023-03-08T02:57:18.218Z,13.60
2023-03-08T03:02:22.918Z,13.60
2023-03-08T03:07:26.973Z,13.60
2023-03-08T03:12:33.281Z,13.60
2023-03-08T03:17:37.707Z,13.50
2023-03-08T03:22:41.149Z,13.50
2023-03-08T03:27:46.957Z,13.50
2023-03-08T03:32:51.216Z,13.40
2023-03-08T03:38:00.583Z,13.40
2023-03-08T03:43:06.471Z,13.50
2023-03-08T03:48:10.703Z,13.40
2023-03-08T03:53:14.712Z,13.30
2023-03-08T03:58:19.984Z,13.30
2023-03-08T04:03:24.309Z,13.30
2023-03-08T04:08:28.969Z,13.30
2023-03-08T04:13:35.341Z,13.30
2023-03-08T04:18:39.108Z,13.30
2023-03-08T04:23:42.982Z,13.30
2023-03-08T04:28:48.003Z,13.20
2023-03-08T04:33:55.975Z,13.10
2023-03-08T04:39:00.439Z,13.10
2023-03-08T04:44:06.615Z,13.10
2023-03-08T04:49:16.381Z,13.20
2023-03-08T04:54:25.423Z,13.20
2023-03-08T04:59:37.059Z,13.30
2023-03-08T05:04:42.426Z,13.40
2023-03-08T05:09:45.823Z,13.50
2023-03-08T05:14:51.947Z,13.50
2023-03-08T05:19:55.838Z,13.50
2023-03-08T05:25:07.612Z,13.60
2023-03-08T05:30:13.850Z,13.70
2023-03-08T05:35:18.355Z,13.70
2023-03-08T05:40:25.878Z,13.80
2023-03-08T05:45:31.927Z,13.80
2023-03-08T05:50:35.573Z,13.90
2023-03-08T05:55:39.389Z,13.90
2023-03-08T06:00:47.866Z,13.90
2023-03-08T06:05:51.559Z,13.90
2023-03-08T06:10:55.063Z,13.90
2023-03-08T06:16:01.262Z,13.90
2023-03-08T06:21:07.730Z,13.90
2023-03-08T06:26:13.452Z,14.00
2023-03-08T06:31:20.857Z,14.00
2023-03-08T06:36:24.236Z,14.00
2023-03-08T06:41:29.628Z,14.00
2023-03-08T06:46:37.061Z,14.00
2023-03-08T06:51:41.390Z,14.10
2023-03-08T06:56:47.202Z,14.10
2023-03-08T07:01:52.211Z,14.20
2023-03-08T07:06:56.668Z,14.20
2023-03-08T07:12:00.076Z,14.20
2023-03-08T07:17:04.906Z,14.30
2023-03-08T07:22:08.263Z,14.40
2023-03-08T07:27:11.608Z,14.40
2023-03-08T07:32:16.453Z,14.50
2023-03-08T07:37:19.819Z,14.50
2023-03-08T07:42:23.372Z,14.60
2023-03-08T07:47:33.384Z,14.70
2023-03-08T07:52:36.828Z,14.70
2023-03-08T07:57:40.225Z,14.80
2023-03-08T08:02:45.862Z,14.80
2023-03-08T08:07:49.565Z,14.90
2023-03-08T08:12:52.851Z,15.00
2023-03-08T08:17:57.622Z,15.10
2023-03-08T08:23:00.973Z,15.20
2023-03-08T08:28:04.656Z,15.30
2023-03-08T08:33:09.389Z,15.40
2023-03-08T08:38:13.100Z,15.50
2023-03-08T08:43:16.680Z,15.60
2023-03-08T08:48:21.435Z,15.70
2023-03-08T08:53:24.812Z,15.80
2023-03-08T08:58:28.279Z,16.00
2023-03-08T09:03:32.940Z,16.10
2023-03-08T09:08:36.754Z,16.20
2023-03-08T09:13:42.347Z,16.40
2023-03-08T09:18:47.302Z,16.50
2023-03-08T09:23:51.172Z,16.70
2023-03-08T09:28:54.547Z,16.80
2023-03-08T09:34:00.230Z,16.90
2023-03-08T09:39:05.511Z,17.00
2023-03-08T09:44:19.542Z,17.20
2023-03-08T09:49:30.729Z,17.30
2023-03-08T09:54:38.376Z,17.40
2023-03-08T09:59:46.395Z,17.50
2023-03-08T10:05:12.421Z,17.60
2023-03-08T10:10:43.900Z,17.80
2023-03-08T10:15:52.324Z,17.90
2023-03-08T10:20:59.513Z,17.90
2023-03-08T10:26:03.767Z,18.00
2023-03-08T10:31:19.730Z,18.00
2023-03-08T10:36:26.677Z,18.10
2023-03-08T10:41:33.018Z,18.10
2023-03-08T10:46:46.815Z,18.20
2023-03-08T10:51:57.401Z,18.20
2023-03-08T10:57:02.639Z,18.20
2023-03-08T11:02:22.923Z,18.20
2023-03-08T11:07:29.769Z,18.20
2023-03-08T11:12:33.205Z,18.30
2023-03-08T11:17:40.194Z,18.20
2023-03-08T11:23:01.718Z,18.30
2023-03-08T11:28:29.491Z,18.30
2023-03-08T11:33:48.856Z,18.30
2023-03-08T11:39:00.440Z,18.40
2023-03-08T11:44:19.136Z,18.40
2023-03-08T11:49:37.362Z,18.40
2023-03-08T11:54:55.966Z,18.50
2023-03-08T12:00:08.938Z,18.50
2023-03-08T12:05:25.453Z,18.50
2023-03-08T12:10:33.947Z,18.50
2023-03-08T12:15:42.218Z,18.50
2023-03-08T12:20:46.490Z,18.50
2023-03-08T12:25:54.614Z,18.50
2023-03-08T12:31:24.877Z,18.50
2023-03-08T12:36:40.794Z,18.50
2023-03-08T12:41:46.233Z,18.40
2023-03-08T12:47:02.457Z,18.40
2023-03-08T12:52:09.159Z,18.40
2023-03-08T12:57:23.595Z,18.30
2023-03-08T13:02:31.297Z,18.30
2023-03-08T13:07:40.392Z,18.20
2023-03-08T13:13:05.398Z,18.20
2023-03-08T13:18:16.578Z,18.20
2023-03-08T13:23:29.905Z,18.10
2023-03-08T13:28:46.523Z,18.10
2023-03-08T13:33:53.328Z,18.10
2023-03-08T13:39:01.034Z,18.10
2023-03-08T13:44:07.589Z,18.10
2023-03-08T13:49:17.968Z,18.10
2023-03-08T13:54:29.501Z,18.10
2023-03-08T13:59:38.076Z,18.20
2023-03-08T14:04:44.396Z,18.20
2023-03-08T14:09:47.767Z,18.20
2023-03-08T14:14:55.664Z,18.20
2023-03-08T14:20:02.310Z,18.30
2023-03-08T14:25:06.655Z,18.30
2023-03-08T14:30:18.681Z,18.40
2023-03-08T14:35:26.689Z,18.40
2023-03-08T14:40:32.454Z,18.40
2023-03-08T14:45:40.983Z,18.50
2023-03-08T14:50:56.118Z,18.50
2023-03-08T14:56:00.740Z,18.50
2023-03-08T15:01:06.245Z,18.60
2023-03-08T15:06:16.132Z,18.60
2023-03-08T15:11:19.553Z,18.60
2023-03-08T15:16:24.333Z,18.60
2023-03-08T15:21:29.728Z,18.70
2023-03-08T15:26:33.628Z,18.70
2023-03-08T15:31:38.391Z,18.70
2023-03-08T15:36:41.807Z,18.80
2023-03-08T15:41:45.528Z,18.80
2023-03-08T15:46:52.747Z,18.90
2023-03-08T15:51:56.362Z,18.90
2023-03-08T15:56:59.843Z,18.90
2023-03-08T16:02:04.906Z,19.00
2023-03-08T16:07:08.445Z,19.10
2023-03-08T16:12:11.921Z,19.10
2023-03-08T16:17:17.383Z,19.10
2023-03-08T16:22:21.282Z,19.10
2023-03-08T16:27:24.751Z,19.10
2023-03-08T16:32:30.049Z,19.20
2023-03-08T16:37:33.632Z,19.20
2023-03-08T16:42:37.055Z,19.20
2023-03-08T16:47:41.980Z,19.30
2023-03-08T16:52:45.420Z,19.30
2023-03-08T16:57:48.986Z,19.30
2023-03-08T17:02:53.810Z,19.40
2023-03-08T17:07:59.074Z,19.40
2023-03-08T17:13:03.036Z,19.40
2023-03-08T17:18:08.676Z,19.40
2023-03-08T17:23:13.697Z,19.40
2023-03-08T17:28:17.341Z,19.40
2023-03-08T17:33:25.940Z,19.40
2023-03-08T17:38:30.148Z,19.30
2023-03-08T17:43:33.879Z,19.30
2023-03-08T17:48:39.167Z,19.30
2023-03-08T17:53:43.800Z,19.30
2023-03-08T17:58:48.727Z,19.30
2023-03-08T18:03:55.951Z,19.20
2023-03-08T18:09:01.943Z,19.20
2023-03-08T18:14:07.481Z,19.20
2023-03-08T18:19:15.480Z,19.10
2023-03-08T18:24:20.491Z,19.10
2023-03-08T18:29:25.867Z,19.00
2023-03-08T18:34:31.854Z,19.00
2023-03-08T18:39:38.666Z,19.00
2023-03-08T18:44:43.144Z,18.90
2023-03-08T18:49:50.101Z,18.90
2023-03-08T18:54:56.791Z,18.80
2023-03-08T19:00:01.407Z,18.20
2023-03-08T19:05:13.283Z,18.50
2023-03-08T19:10:18.108Z,18.70
2023-03-08T19:15:22.014Z,18.70
2023-03-08T19:20:30.011Z,18.70
2023-03-08T19:25:35.746Z,18.70
2023-03-08T19:30:41.114Z,18.70
2023-03-08T19:35:47.158Z,18.70
2023-03-08T19:40:52.163Z,18.60
2023-03-08T19:45:57.466Z,18.60
2023-03-08T19:51:03.732Z,18.60
2023-03-08T19:56:11.067Z,18.50
2023-03-08T20:01:23.215Z,18.50
2023-03-08T20:06:32.550Z,18.50
2023-03-08T20:11:39.096Z,18.50
2023-03-08T20:16:49.944Z,18.50
2023-03-08T20:21:56.848Z,18.40
2023-03-08T20:27:04.864Z,18.40
2023-03-08T20:32:13.621Z,18.40
2023-03-08T20:37:23.125Z,18.40
2023-03-08T20:42:32.233Z,18.40
2023-03-08T20:47:38.067Z,18.40
2023-03-08T20:52:48.380Z,18.40
2023-03-08T20:57:54.730Z,18.30
2023-03-08T21:03:00.497Z,18.30
2023-03-08T21:08:09.210Z,18.30
2023-03-08T21:13:15.482Z,18.30
2023-03-08T21:18:20.259Z,18.30
2023-03-08T21:23:26.407Z,18.30
2023-03-08T21:28:32.886Z,18.30
2023-03-08T21:33:38.545Z,18.20
2023-03-08T21:38:45.592Z,18.20
2023-03-08T21:43:51.108Z,18.20
2023-03-08T21:48:57.024Z,18.20
2023-03-08T21:54:02.565Z,18.20
2023-03-08T21:59:06.287Z,18.20
2023-03-08T22:04:09.785Z,18.10
2023-03-08T22:09:15.022Z,18.10
2023-03-08T22:14:18.459Z,18.10
2023-03-08T22:19:22.031Z,18.10
2023-03-08T22:24:27.033Z,18.10
2023-03-08T22:29:31.940Z,18.00
2023-03-08T22:34:36.033Z,18.00
2023-03-08T22:39:41.093Z,17.90
2023-03-08T22:44:44.496Z,17.90
2023-03-08T22:49:51.326Z,17.90
2023-03-08T22:54:56.026Z,17.90
2023-03-08T23:00:00.160Z,17.80
2023-03-08T23:05:03.517Z,17.70
2023-03-08T23:10:09.227Z,17.80
2023-03-08T23:15:13.020Z,17.70
2023-03-08T23:20:19.896Z,17.70
2023-03-08T23:25:25.111Z,17.70
2023-03-08T23:30:28.493Z,17.60
2023-03-08T23:35:31.941Z,17.60
2023-03-08T23:40:40.101Z,17.60
2023-03-08T23:45:43.508Z,17.50
2023-03-08T23:50:46.851Z,17.50
2023-03-08T23:55:51.610Z,17.50
